Time;durP1;ratioP1;P1;durP2;ratioP2;P2;SDS_P1;SDS_P2;PMS_P1;PMS_P2;Temp;Humidity;BMP_temperature;BMP_pressure;BME280_temperature;BME280_humidity;BME280_pressure;Samples;Min_cycle;Max_cycle;Signal;HPM_P1;HPM_P2
2021/12/10 00:01:09;;;;;;;;;10.75;8.50;;;;;5.58;94.23;99064.25;5034633;28;45726;-70
2021/12/10 00:03:40;;;;;;;;;9.75;9.00;;;;;5.58;94.39;99059.03;5033909;28;47823;-73
2021/12/10 00:06:14;;;;;;;;;12.50;9.25;;;;;5.67;93.39;99055.28;5012250;28;46242;-72
2021/12/10 00:08:44;;;;;;;;;7.00;7.00;;;;;5.64;94.55;99050.16;5033121;28;45515;-73
2021/12/10 00:15:59;;;;;;;;;7.50;7.50;;;;;4.81;93.27;98901.28;4950708;28;46122;-73
2021/12/10 00:18:31;;;;;;;;;13.50;8.75;;;;;5.58;93.44;98998.13;4838053;29;45482;-72
2021/12/10 00:20:59;;;;;;;;;10.25;8.25;;;;;5.68;94.49;99012.59;4835563;29;45942;-73
2021/12/10 00:23:28;;;;;;;;;11.25;8.50;;;;;5.40;93.76;98957.75;4838196;29;46519;-72
2021/12/10 00:25:55;;;;;;;;;11.00;8.25;;;;;5.73;93.81;99002.84;4838505;29;45573;-72
2021/12/10 00:28:27;;;;;;;;;7.75;7.50;;;;;5.72;93.59;98989.84;4838294;29;45439;-74
2021/12/10 00:31:16;;;;;;;;;9.00;8.25;;;;;5.71;94.18;98982.94;4836102;29;46086;-72
2021/12/10 00:33:46;;;;;;;;;10.75;9.00;;;;;5.66;94.00;98969.16;4838629;29;45565;-71
2021/12/10 00:36:12;;;;;;;;;6.50;6.00;;;;;5.72;94.12;98976.78;4838390;29;46698;-72
2021/12/10 00:38:38;;;;;;;;;6.00;6.00;;;;;5.74;93.86;98972.41;4853066;29;45920;-73
2021/12/10 00:41:07;;;;;;;;;10.67;10.33;;;;;5.73;94.86;98957.63;4875362;29;45422;-74
2021/12/10 00:43:35;;;;;;;;;10.25;6.00;;;;;5.65;93.86;98926.53;4872986;29;45505;-73
2021/12/10 00:46:00;;;;;;;;;10.33;8.67;;;;;5.81;93.40;98944.31;4892342;28;45951;-72
2021/12/10 00:48:26;;;;;;;;;11.00;4.75;;;;;5.81;93.98;98939.97;4913412;28;45836;-72
2021/12/10 00:50:54;;;;;;;;;6.50;6.50;;;;;5.80;94.14;98933.03;4913894;28;45526;-73
2021/12/10 00:53:20;;;;;;;;;6.25;6.25;;;;;5.76;94.73;98920.97;4913891;28;45551;-71
2021/12/10 00:55:46;;;;;;;;;9.25;7.00;;;;;5.81;94.80;98921.69;4973660;28;45476;-72
2021/12/10 00:58:12;;;;;;;;;7.25;7.25;;;;;5.82;95.02;98915.53;5015793;28;45430;-72
2021/12/10 01:00:46;;;;;;;;;5.75;4.25;;;;;5.82;94.66;98909.47;5013388;28;45626;-72
2021/12/10 01:03:15;;;;;;;;;7.75;5.75;;;;;5.41;94.95;98829.00;5013301;28;45432;-72
2021/12/10 01:05:48;;;;;;;;;3.25;3.25;;;;;5.80;94.95;98899.06;5016270;28;45997;-72
2021/12/10 01:08:14;;;;;;;;;5.75;4.00;;;;;5.75;94.81;98885.28;5013000;28;45676;-72
2021/12/10 01:10:45;;;;;;;;;5.50;5.50;;;;;5.81;96.14;98884.25;5022632;28;45446;-73
2021/12/10 01:13:16;;;;;;;;;2.75;2.75;;;;;5.75;95.26;98875.72;5022250;28;45740;-73
2021/12/10 01:16:05;;;;;;;;;4.50;3.75;;;;;5.85;95.36;98888.47;5012808;28;46401;-72
2021/12/10 01:24:06;;;;;;;;;6.00;6.00;;;;;5.75;95.30;98864.41;5013027;28;45873;-72
2021/12/10 01:27:07;;;;;;;;;6.75;5.00;;;;;5.79;96.14;98863.41;5013057;28;46723;-72
2021/12/10 01:29:29;;;;;;;;;4.75;4.00;;;;;5.69;96.25;98830.69;5012334;28;45951;-72
2021/12/10 01:31:54;;;;;;;;;7.00;4.00;;;;;5.86;96.03;98861.44;5018062;28;45527;-73
2021/12/10 01:34:21;;;;;;;;;3.75;3.75;;;;;5.81;95.78;98853.78;5013230;28;45494;-72
2021/12/10 01:36:46;;;;;;;;;5.00;3.50;;;;;5.73;95.60;98838.34;5015317;28;47272;-71
2021/12/10 01:39:15;;;;;;;;;5.75;4.00;;;;;5.72;96.15;98831.44;5016487;28;45513;-72
2021/12/10 01:41:43;;;;;;;;;3.75;3.75;;;;;5.78;97.61;98833.00;5016581;28;45546;-72
2021/12/10 01:44:17;;;;;;;;;6.00;3.75;;;;;5.83;97.35;98840.66;5016847;28;45476;-73
2021/12/10 01:46:45;;;;;;;;;4.00;2.50;;;;;5.83;96.87;98840.66;5021832;28;47524;-73
2021/12/10 01:49:13;;;;;;;;;2.00;2.00;;;;;5.82;97.43;98839.78;5036295;28;45754;-75
2021/12/10 01:51:42;;;;;;;;;2.00;2.00;;;;;5.78;97.05;98832.13;5036650;28;45576;-73
2021/12/10 01:54:17;;;;;;;;;1.00;1.00;;;;;5.78;98.55;98840.81;5036406;28;45496;-73
2021/12/10 01:56:43;;;;;;;;;0.00;0.00;;;;;5.74;97.29;98819.16;4996602;28;46369;-71
2021/12/10 01:59:13;;;;;;;;;0.00;0.00;;;;;5.83;97.30;98812.78;5013838;28;45441;-71
2021/12/10 02:01:45;;;;;;;;;0.75;0.75;;;;;5.81;97.85;98812.00;5016681;28;45526;-71
2021/12/10 02:04:14;;;;;;;;;0.00;0.00;;;;;5.77;99.25;98809.53;5021518;28;45860;-72
2021/12/10 02:06:40;;;;;;;;;0.00;0.00;;;;;5.67;100.00;98795.94;5035540;28;45403;-74
2021/12/10 02:09:08;;;;;;;;;1.50;0.00;;;;;5.56;99.64;98771.06;5036042;28;45862;-73
2021/12/10 02:11:33;;;;;;;;;1.50;0.00;;;;;5.68;99.19;98782.00;5036302;28;45474;-74
2021/12/10 02:13:59;;;;;;;;;1.25;0.50;;;;;5.77;98.71;98793.88;5042402;28;45466;-73
2021/12/10 02:16:24;;;;;;;;;2.00;0.25;;;;;5.76;100.00;98787.78;5055916;28;46069;-73
2021/12/10 02:18:50;;;;;;;;;1.00;1.00;;;;;5.82;99.75;98778.88;5055989;28;45783;-73
2021/12/10 02:21:21;;;;;;;;;0.00;0.00;;;;;5.80;99.08;98768.50;5048534;28;45452;-73
2021/12/10 02:23:56;;;;;;;;;2.00;0.25;;;;;5.73;100.00;98757.41;5044463;28;45903;-71
2021/12/10 02:26:24;;;;;;;;;0.00;0.00;;;;;5.78;99.26;98759.00;5054229;28;46384;-72
2021/12/10 02:28:50;;;;;;;;;0.75;0.75;;;;;5.70;99.67;98739.22;5056066;28;45492;-71
2021/12/10 02:31:15;;;;;;;;;0.00;0.00;;;;;5.58;99.47;98721.41;5049300;28;45821;-71
2021/12/10 02:33:41;;;;;;;;;7.50;0.75;;;;;5.72;99.93;98747.00;5038527;28;45773;-71
2021/12/10 02:36:11;;;;;;;;;1.75;1.00;;;;;5.74;100.00;98747.81;5035736;28;46269;-71
2021/12/10 02:38:43;;;;;;;;;0.00;0.00;;;;;5.69;100.00;98727.09;5035514;28;45475;-70
2021/12/10 02:41:09;;;;;;;;;2.00;0.00;;;;;5.69;98.80;98729.72;5035562;28;45852;-72
2021/12/10 02:43:35;;;;;;;;;0.75;0.00;;;;;5.68;98.54;98729.78;5043837;28;45687;-71
2021/12/10 02:46:00;;;;;;;;;0.00;0.00;;;;;5.63;97.90;98708.19;5055546;28;46233;-72
2021/12/10 02:48:26;;;;;;;;;0.00;0.00;;;;;5.61;97.62;98710.00;5055182;28;45366;-71
2021/12/10 02:50:54;;;;;;;;;0.00;0.00;;;;;5.54;99.38;98706.75;5055866;28;45495;-72
2021/12/10 02:53:26;;;;;;;;;1.00;0.00;;;;;5.47;98.16;98687.84;5055785;28;45416;-72
2021/12/10 02:55:52;;;;;;;;;0.75;0.00;;;;;5.43;97.48;98688.00;5052608;28;47144;-72
2021/12/10 02:58:17;;;;;;;;;0.00;0.00;;;;;5.39;98.30;98682.91;5025979;28;45762;-71
2021/12/10 03:00:48;;;;;;;;;0.00;0.00;;;;;5.41;99.26;98678.47;5053840;28;45495;-70
2021/12/10 03:03:14;;;;;;;;;0.00;0.00;;;;;5.37;97.80;98666.47;5046368;28;45473;-71
2021/12/10 03:05:39;;;;;;;;;0.00;0.00;;;;;5.31;96.50;98650.16;5052705;28;46375;-71
2021/12/10 03:08:05;;;;;;;;;0.00;0.00;;;;;5.32;97.07;98647.47;5055618;28;45509;-70
2021/12/10 03:10:32;;;;;;;;;0.00;0.00;;;;;5.39;97.16;98659.41;5055387;28;45782;-71
2021/12/10 03:12:58;;;;;;;;;2.00;0.00;;;;;5.38;98.18;98646.41;5054798;28;45469;-71
2021/12/10 03:15:26;;;;;;;;;1.00;1.00;;;;;5.41;97.22;98649.75;5055046;28;47086;-72
2021/12/10 03:17:52;;;;;;;;;0.00;0.00;;;;;5.40;97.48;98634.16;5055017;28;45749;-70
2021/12/10 03:20:22;;;;;;;;;0.00;0.00;;;;;5.40;97.33;98634.16;5055412;28;45376;-71
2021/12/10 03:22:48;;;;;;;;;0.00;0.00;;;;;5.35;97.32;98618.66;5040980;28;45484;-71
2021/12/10 03:25:16;;;;;;;;;0.00;0.00;;;;;5.39;100.00;98629.88;5034708;28;46210;-71
2021/12/10 03:27:44;;;;;;;;;0.00;0.00;;;;;5.37;97.33;98621.22;5034973;28;45460;-71
2021/12/10 03:30:15;;;;;;;;;0.00;0.00;;;;;5.40;96.68;98621.97;5034970;28;45398;-72
2021/12/10 03:32:41;;;;;;;;;0.00;0.00;;;;;5.38;98.51;98618.56;5035208;28;45904;-73
2021/12/10 03:35:13;;;;;;;;;0.00;0.00;;;;;5.42;98.31;98616.69;5034778;28;45595;-73
2021/12/10 03:37:40;;;;;;;;;0.00;0.00;;;;;5.33;98.87;98590.91;5034727;28;45502;-73
2021/12/10 03:40:09;;;;;;;;;0.00;0.00;;;;;5.40;96.92;98610.66;5034885;28;45442;-73
2021/12/10 03:42:34;;;;;;;;;0.00;0.00;;;;;5.28;98.86;98595.47;5041064;28;45414;-72
2021/12/10 03:44:59;;;;;;;;;0.00;0.00;;;;;5.22;98.01;98589.53;5048495;28;45762;-73
2021/12/10 03:47:25;;;;;;;;;0.00;0.00;;;;;5.26;98.42;98597.25;5034679;28;45661;-73
2021/12/10 03:49:51;;;;;;;;;0.00;0.00;;;;;5.31;97.95;98603.19;5034644;28;45511;-73
2021/12/10 03:52:16;;;;;;;;;0.00;0.00;;;;;5.27;98.10;98594.63;5034887;28;45858;-72
2021/12/10 03:54:42;;;;;;;;;0.00;0.00;;;;;4.94;100.00;98553.19;5034537;28;46603;-73
2021/12/10 03:57:09;;;;;;;;;0.25;0.00;;;;;5.17;100.00;98583.66;5034298;28;45429;-72
2021/12/10 03:59:36;;;;;;;;;0.00;0.00;;;;;5.20;100.00;98585.31;5032266;28;45530;-73
2021/12/10 04:02:05;;;;;;;;;0.00;0.00;;;;;5.03;99.31;98544.19;5018830;28;45553;-72
2021/12/10 04:04:42;;;;;;;;;0.00;0.00;;;;;5.13;99.04;98563.81;5029787;28;45539;-72
2021/12/10 04:07:13;;;;;;;;;0.75;0.75;;;;;5.00;100.00;98546.91;5045424;28;45420;-73
2021/12/10 04:09:40;;;;;;;;;0.00;0.00;;;;;5.06;100.00;98554.50;5035355;28;45738;-71
2021/12/10 04:12:07;;;;;;;;;0.00;0.00;;;;;5.08;100.00;98552.66;5048225;28;45729;-70
2021/12/10 04:14:33;;;;;;;;;0.00;0.00;;;;;5.08;100.00;98544.84;5054128;28;45927;-70
2021/12/10 04:16:59;;;;;;;;;0.00;0.00;;;;;5.08;100.00;98539.63;5053610;28;46021;-70
2021/12/10 04:19:28;;;;;;;;;0.00;0.00;;;;;5.14;100.00;98549.88;5054297;28;45465;-71
2021/12/10 04:21:56;;;;;;;;;0.00;0.00;;;;;5.13;100.00;98550.75;5047607;28;45506;-71
2021/12/10 04:24:26;;;;;;;;;0.00;0.00;;;;;5.19;99.29;98542.72;5044202;28;47204;-71
2021/12/10 04:26:52;;;;;;;;;0.00;0.00;;;;;5.20;99.83;98549.63;5037744;28;45382;-73
2021/12/10 04:29:20;;;;;;;;;0.00;0.00;;;;;5.16;100.00;98528.94;5034064;28;45695;-72
2021/12/10 04:31:48;;;;;;;;;1.00;1.00;;;;;5.11;99.17;98523.91;5033954;28;45748;-73
2021/12/10 04:34:13;;;;;;;;;2.75;1.25;;;;;5.13;98.56;98502.97;5033720;28;45407;-72
2021/12/10 04:36:39;;;;;;;;;2.00;1.00;;;;;5.25;98.93;98514.72;5033886;28;45444;-72
2021/12/10 04:39:06;;;;;;;;;0.00;0.00;;;;;5.25;100.00;98501.66;5035496;28;45438;-71
2021/12/10 04:41:32;;;;;;;;;0.00;0.00;;;;;5.23;98.98;98501.72;5034171;28;45406;-70
2021/12/10 04:43:58;;;;;;;;;0.00;0.00;;;;;4.99;99.09;98462.56;5043303;28;45372;-70
2021/12/10 04:46:23;;;;;;;;;0.00;0.00;;;;;5.19;99.15;98485.31;5048760;28;45461;-70
2021/12/10 04:48:51;;;;;;;;;0.00;0.00;;;;;5.30;99.53;98502.31;5046106;28;45480;-70
2021/12/10 04:51:19;;;;;;;;;0.75;0.75;;;;;5.25;97.83;98499.88;5037131;28;45856;-71
2021/12/10 04:53:44;;;;;;;;;3.25;1.00;;;;;5.27;98.33;98487.66;5053481;28;46436;-71
2021/12/10 04:56:10;;;;;;;;;3.00;3.00;;;;;5.23;98.11;98467.81;5053660;28;45470;-71
2021/12/10 04:58:35;;;;;;;;;1.00;1.00;;;;;5.27;97.84;98473.75;5052533;28;45492;-71
2021/12/10 05:01:03;;;;;;;;;2.25;1.00;;;;;5.16;97.92;98456.75;5033734;28;45433;-70
2021/12/10 05:03:28;;;;;;;;;0.50;0.00;;;;;5.21;97.51;98462.66;5033610;28;46595;-71
2021/12/10 05:06:00;;;;;;;;;0.25;0.25;;;;;5.29;97.10;98472.78;5052829;28;45687;-70
2021/12/10 05:08:25;;;;;;;;;0.00;0.00;;;;;5.30;96.00;98476.22;5033493;28;45384;-70
2021/12/10 05:10:51;;;;;;;;;0.00;0.00;;;;;5.25;94.71;98476.41;5033530;28;45510;-70
2021/12/10 05:13:16;;;;;;;;;0.00;0.00;;;;;5.09;95.81;98457.88;5033204;28;46372;-70
2021/12/10 05:15:43;;;;;;;;;0.00;0.00;;;;;5.11;94.72;98463.03;5014907;28;45955;-71
2021/12/10 05:18:12;;;;;;;;;0.00;0.00;;;;;5.07;95.65;98462.31;5034189;28;45748;-70
2021/12/10 05:20:41;;;;;;;;;0.00;0.00;;;;;4.99;97.73;98454.75;5034577;28;45441;-70
2021/12/10 05:23:07;;;;;;;;;0.00;0.00;;;;;4.93;97.71;98439.34;5033970;28;47268;-70
2021/12/10 05:25:32;;;;;;;;;1.75;0.50;;;;;5.04;96.31;98465.88;5034041;28;45716;-70
2021/12/10 05:27:59;;;;;;;;;0.00;0.00;;;;;5.04;95.66;98465.88;5034148;28;45672;-70
2021/12/10 05:30:28;;;;;;;;;0.00;0.00;;;;;4.98;95.58;98470.47;5034478;28;45372;-70
2021/12/10 05:32:55;;;;;;;;;0.00;0.00;;;;;4.93;95.61;98473.25;5034086;28;46177;-72
2021/12/10 05:35:21;;;;;;;;;0.00;0.00;;;;;4.86;96.83;98461.34;5033988;28;45474;-70
2021/12/10 05:37:46;;;;;;;;;4.00;1.00;;;;;4.66;95.80;98441.19;5034041;28;45532;-70
2021/12/10 05:40:15;;;;;;;;;2.00;0.50;;;;;4.84;96.98;98470.97;5033519;28;45386;-71
2021/12/10 05:42:43;;;;;;;;;0.00;0.00;;;;;4.69;95.18;98452.38;5032935;28;46300;-72
2021/12/10 05:45:09;;;;;;;;;0.00;0.00;;;;;4.73;94.99;98468.75;5032962;28;45429;-72
2021/12/10 05:47:35;;;;;;;;;4.00;2.75;;;;;4.69;97.51;98465.41;5037123;28;45536;-73
2021/12/10 05:50:00;;;;;;;;;1.25;1.25;;;;;4.64;96.06;98456.88;5035321;28;45732;-73
2021/12/10 05:52:26;;;;;;;;;6.00;2.00;;;;;4.63;96.03;98449.13;5037316;28;46620;-73
2021/12/10 05:54:52;;;;;;;;;0.00;0.00;;;;;4.70;96.63;98459.31;5032790;28;45501;-72
2021/12/10 05:57:18;;;;;;;;;2.00;0.00;;;;;4.66;96.42;98435.97;5033158;28;45508;-73
2021/12/10 05:59:44;;;;;;;;;0.00;0.00;;;;;4.67;97.23;98437.69;5032967;28;45570;-72
2021/12/10 06:02:09;;;;;;;;;2.75;2.75;;;;;4.69;96.11;98446.28;5032583;28;45827;-69
2021/12/10 06:04:35;;;;;;;;;0.00;0.00;;;;;4.65;96.32;98436.91;5040898;28;45429;-71
2021/12/10 06:07:03;;;;;;;;;0.50;0.50;;;;;4.63;97.48;98434.34;5052301;28;45491;-70
2021/12/10 06:09:28;;;;;;;;;0.00;0.00;;;;;4.49;96.22;98418.38;5052836;28;45498;-71
2021/12/10 06:11:53;;;;;;;;;0.00;0.00;;;;;4.57;96.29;98431.94;5036503;28;46245;-70
2021/12/10 06:14:19;;;;;;;;;1.75;1.00;;;;;4.56;97.07;98422.44;5032375;28;45497;-71
2021/12/10 06:16:45;;;;;;;;;0.00;0.00;;;;;4.68;97.88;98431.59;5017481;28;45533;-71
2021/12/10 06:19:11;;;;;;;;;0.00;0.00;;;;;4.66;97.56;98425.56;5012418;28;45720;-71
2021/12/10 06:21:38;;;;;;;;;0.00;0.00;;;;;4.51;99.10;98399.13;5012895;28;46134;-73
2021/12/10 06:24:06;;;;;;;;;1.00;1.00;;;;;4.71;97.34;98418.44;5016098;28;45382;-73
2021/12/10 06:26:32;;;;;;;;;0.50;0.50;;;;;4.39;96.91;98373.53;5016050;28;45402;-72
2021/12/10 06:28:58;;;;;;;;;0.25;0.25;;;;;4.68;95.89;98422.00;5015909;28;45776;-73
2021/12/10 06:31:23;;;;;;;;;1.00;1.00;;;;;4.67;95.82;98422.88;5007507;28;45454;-72
2021/12/10 06:33:50;;;;;;;;;1.00;0.50;;;;;4.63;96.40;98418.72;5009273;28;45467;-73
2021/12/10 06:36:17;;;;;;;;;1.50;0.00;;;;;4.57;96.69;98412.88;5016134;28;45703;-73
2021/12/10 06:38:43;;;;;;;;;8.00;8.00;;;;;4.46;96.90;98397.59;5024956;28;45477;-73
2021/12/10 06:41:10;;;;;;;;;4.25;2.00;;;;;4.46;98.38;98403.69;5029621;28;45528;-72
2021/12/10 06:43:36;;;;;;;;;2.00;1.00;;;;;4.61;96.87;98407.47;5027868;28;45542;-74
2021/12/10 06:46:04;;;;;;;;;1.00;1.00;;;;;4.56;97.60;98413.75;5024715;28;45481;-75
2021/12/10 06:48:30;;;;;;;;;1.00;1.00;;;;;4.62;98.15;98421.34;5015180;28;45488;-74
2021/12/10 06:50:59;;;;;;;;;4.00;2.50;;;;;4.66;97.79;98420.34;5015309;28;45501;-74
2021/12/10 06:53:27;;;;;;;;;2.50;2.00;;;;;4.69;97.41;98418.50;5015384;28;45767;-73
2021/12/10 06:55:52;;;;;;;;;1.00;1.00;;;;;4.72;97.91;98422.75;5014278;28;45965;-74
2021/12/10 06:58:18;;;;;;;;;1.75;1.75;;;;;4.74;98.60;98420.09;4995898;28;45499;-74
2021/12/10 07:00:48;;;;;;;;;2.50;1.75;;;;;4.84;98.43;98421.44;4995617;28;46464;-75
2021/12/10 07:03:20;;;;;;;;;21.67;21.67;;;;;4.87;98.86;98423.94;4995420;28;45510;-73
2021/12/10 07:05:47;;;;;;;;;2.50;2.50;;;;;4.93;100.00;98430.69;5027751;28;45497;-75
2021/12/10 07:08:13;;;;;;;;;3.00;3.00;;;;;4.88;100.00;98413.44;5015597;28;45757;-74
2021/12/10 07:10:39;;;;;;;;;3.00;3.00;;;;;5.06;99.99;98429.31;5015069;28;46261;-73
2021/12/10 07:13:06;;;;;;;;;8.50;8.50;;;;;5.02;100.00;98425.09;5015139;28;45693;-73
2021/12/10 07:15:40;;;;;;;;;6.50;5.50;;;;;5.19;100.00;98435.75;5033968;28;45389;-73
2021/12/10 07:18:06;;;;;;;;;19.33;13.00;;;;;5.30;100.00;98450.13;5035142;28;45445;-74
2021/12/10 07:20:33;;;;;;;;;9.25;9.25;;;;;5.41;100.00;98458.41;5041322;28;46352;-73
2021/12/10 07:22:58;;;;;;;;;14.67;14.67;;;;;5.37;100.00;98431.59;5054948;28;45444;-72
2021/12/10 07:25:24;;;;;;;;;9.75;9.50;;;;;5.61;100.00;98460.25;5055164;28;45942;-70
2021/12/10 07:27:51;;;;;;;;;7.75;7.75;;;;;5.72;100.00;98470.25;5048242;28;45675;-71
2021/12/10 07:30:19;;;;;;;;;6.75;6.00;;;;;5.82;100.00;98473.34;5034821;28;46524;-68
2021/12/10 07:32:45;;;;;;;;;15.00;9.00;;;;;5.92;100.00;98464.22;5034510;28;46441;-71
2021/12/10 07:35:11;;;;;;;;;9.00;8.25;;;;;6.01;100.00;98473.47;5034656;28;45354;-65
2021/12/10 07:37:37;;;;;;;;;7.75;6.75;;;;;6.13;100.00;98479.97;5034348;28;46049;-70
2021/12/10 07:40:06;;;;;;;;;7.75;6.00;;;;;5.84;100.00;98416.66;5033757;28;45812;-73
2021/12/10 07:42:32;;;;;;;;;6.75;6.00;;;;;6.21;100.00;98481.34;5040450;28;45449;-68
2021/12/10 07:44:57;;;;;;;;;3.00;3.00;;;;;6.28;100.00;98482.78;5054613;28;45905;-71
2021/12/10 07:47:24;;;;;;;;;3.50;3.00;;;;;6.27;100.00;98480.25;5035851;28;45801;-72
2021/12/10 07:49:49;;;;;;;;;4.50;4.00;;;;;6.32;100.00;98490.50;5048459;28;47486;-76
2021/12/10 07:52:21;;;;;;;;;3.00;3.00;;;;;6.41;100.00;98503.19;5054175;28;45456;-76
2021/12/10 07:54:47;;;;;;;;;4.00;4.00;;;;;6.40;100.00;98504.94;5044602;28;45476;-76
2021/12/10 07:57:15;;;;;;;;;4.75;4.75;;;;;6.51;100.00;98527.19;5034629;28;45411;-75
2021/12/10 07:59:40;;;;;;;;;3.25;2.75;;;;;6.53;100.00;98527.97;5034046;28;45803;-76
2021/12/10 08:02:06;;;;;;;;;6.75;4.00;;;;;6.53;100.00;98530.56;5034397;28;45529;-76
2021/12/10 08:04:32;;;;;;;;;4.50;3.00;;;;;6.31;100.00;98494.03;5042102;28;45511;-75
2021/12/10 08:06:57;;;;;;;;;4.25;2.00;;;;;6.60;100.00;98529.41;5054636;28;45846;-76
2021/12/10 08:09:22;;;;;;;;;2.50;2.00;;;;;6.61;100.00;98541.56;5048904;28;45785;-76
2021/12/10 08:11:48;;;;;;;;;2.00;2.00;;;;;6.63;100.00;98558.88;5034472;28;45936;-77
2021/12/10 08:14:14;;;;;;;;;9.50;2.00;;;;;6.63;100.00;98561.50;5034037;28;45778;-76
2021/12/10 08:16:39;;;;;;;;;2.00;2.00;;;;;6.69;99.92;98556.94;5033938;28;45553;-76
2021/12/10 08:19:07;;;;;;;;;2.00;1.00;;;;;6.68;99.08;98552.59;5033217;28;45475;-76
2021/12/10 08:21:33;;;;;;;;;2.75;1.00;;;;;6.74;99.41;98589.81;5033601;28;45437;-76
2021/12/10 08:23:59;;;;;;;;;0.00;0.00;;;;;6.64;98.92;98588.50;5033620;28;45478;-76
2021/12/10 08:26:25;;;;;;;;;1.25;0.00;;;;;6.72;99.39;98617.78;5033659;28;45382;-75
2021/12/10 08:28:52;;;;;;;;;1.50;0.00;;;;;6.46;99.00;98590.09;5033150;28;47240;-77
2021/12/10 08:31:19;;;;;;;;;1.75;1.75;;;;;6.73;99.42;98650.03;5033485;28;45587;-75
2021/12/10 08:33:48;;;;;;;;;2.00;1.00;;;;;6.69;98.96;98654.53;5033429;28;45424;-74
2021/12/10 08:36:15;;;;;;;;;3.75;2.00;;;;;6.73;96.78;98681.41;5033758;28;45489;-76
2021/12/10 08:38:41;;;;;;;;;1.00;1.00;;;;;6.66;95.47;98682.59;5038828;28;46513;-75
2021/12/10 08:41:13;;;;;;;;;1.50;0.25;;;;;6.65;95.33;98692.19;5033485;28;45788;-75
2021/12/10 08:43:40;;;;;;;;;1.00;1.00;;;;;6.63;94.35;98696.63;5033338;28;45457;-76
2021/12/10 08:46:06;;;;;;;;;1.25;1.25;;;;;6.50;95.00;98695.41;5033300;28;45504;-76
2021/12/10 08:48:33;;;;;;;;;4.00;2.75;;;;;6.49;94.07;98727.69;5033210;28;45802;-77
2021/12/10 08:51:04;;;;;;;;;2.80;1.00;;;;;6.53;93.85;98726.66;5033006;28;45468;-76
2021/12/10 08:53:29;;;;;;;;;2.75;0.25;;;;;6.52;93.20;98735.41;5033982;28;45422;-76
2021/12/10 08:55:58;;;;;;;;;0.00;0.00;;;;;6.52;92.91;98751.97;5033651;28;45669;-81
2021/12/10 08:58:24;;;;;;;;;1.00;1.00;;;;;6.45;94.12;98753.09;5033513;28;46405;-77
2021/12/10 09:00:57;;;;;;;;;3.00;1.25;;;;;6.42;94.14;98740.16;5033390;28;45524;-75
2021/12/10 09:03:22;;;;;;;;;2.00;0.00;;;;;6.49;93.19;98774.75;5032890;28;45912;-75
2021/12/10 09:05:48;;;;;;;;;0.00;0.00;;;;;6.45;92.83;98774.03;5033509;28;45448;-75
2021/12/10 09:08:13;;;;;;;;;2.00;0.75;;;;;6.48;93.37;98780.88;5032860;28;45572;-75
2021/12/10 09:10:42;;;;;;;;;45.00;34.67;;;;;6.38;93.86;98781.22;5032262;28;45562;-72
2021/12/10 09:13:14;;;;;;;;;6.50;4.50;;;;;6.45;95.11;98805.38;5032757;28;45488;-74
2021/12/10 09:15:46;;;;;;;;;8.75;2.25;;;;;6.43;95.94;98805.44;5032448;28;45561;-74
2021/12/10 09:18:12;;;;;;;;;3.50;3.00;;;;;6.44;95.80;98801.06;5032099;28;46611;-74
2021/12/10 09:20:42;;;;;;;;;2.50;1.00;;;;;6.49;95.78;98829.66;5032885;28;45851;-75
2021/12/10 09:23:11;;;;;;;;;1.25;0.00;;;;;6.50;95.29;98826.13;5032551;28;45807;-74
2021/12/10 09:25:37;;;;;;;;;2.75;0.00;;;;;6.50;95.50;98823.50;5034479;28;45469;-74
2021/12/10 09:28:03;;;;;;;;;0.25;0.25;;;;;6.48;94.59;98830.53;5032748;28;46339;-77
2021/12/10 09:30:31;;;;;;;;;0.50;0.00;;;;;6.48;94.50;98826.19;5032584;28;45799;-74
2021/12/10 09:32:57;;;;;;;;;0.00;0.00;;;;;6.48;94.93;98847.09;5031922;28;45513;-74
2021/12/10 09:35:25;;;;;;;;;0.00;0.00;;;;;6.50;95.00;98858.34;5032835;28;45854;-75
2021/12/10 09:37:51;;;;;;;;;0.00;0.00;;;;;6.43;95.27;98862.97;5031980;28;47241;-74
2021/12/10 09:40:31;;;;;;;;;3.00;0.25;;;;;6.44;96.01;98862.03;5032565;28;45536;-74
2021/12/10 09:42:58;;;;;;;;;0.00;0.00;;;;;6.51;96.04;98874.91;5028908;28;45585;-75
2021/12/10 09:45:26;;;;;;;;;2.00;0.00;;;;;6.54;95.83;98896.53;5033636;28;45551;-73
2021/12/10 09:47:52;;;;;;;;;0.00;0.00;;;;;6.57;94.71;98891.19;5031107;28;46791;-74
2021/12/10 09:50:22;;;;;;;;;2.00;0.50;;;;;6.54;94.83;98896.53;5033865;28;46257;-74
2021/12/10 09:52:47;;;;;;;;;3.50;1.00;;;;;6.47;95.72;98883.75;5032468;28;45466;-73
2021/12/10 09:55:17;;;;;;;;;0.25;0.00;;;;;6.47;95.25;98884.59;5034041;28;45526;-73
2021/12/10 09:57:44;;;;;;;;;0.50;0.50;;;;;6.53;95.21;98900.06;5034183;28;45812;-74
2021/12/10 10:00:16;;;;;;;;;1.00;0.00;;;;;6.57;95.19;98908.66;5035444;28;45481;-74
2021/12/10 10:02:42;;;;;;;;;3.00;1.00;;;;;6.62;95.24;98898.88;5034793;28;45541;-73
2021/12/10 10:05:09;;;;;;;;;1.00;1.00;;;;;6.61;95.13;98925.94;5041777;28;45513;-74
2021/12/10 10:07:35;;;;;;;;;1.25;0.75;;;;;6.61;95.97;98924.19;5033771;28;46445;-74
2021/12/10 10:10:13;;;;;;;;;1.00;1.00;;;;;6.65;94.82;98924.06;5035459;28;45561;-73
2021/12/10 10:12:42;;;;;;;;;2.00;1.00;;;;;6.60;94.45;98930.31;5034184;28;45894;-73
2021/12/10 10:15:13;;;;;;;;;2.00;0.50;;;;;6.63;94.43;98931.97;5044365;28;45460;-71
2021/12/10 10:17:38;;;;;;;;;2.00;0.00;;;;;6.72;94.48;98939.47;5035692;28;46635;-74
2021/12/10 10:20:06;;;;;;;;;1.00;1.00;;;;;6.58;94.61;98923.44;5045756;28;45697;-73
2021/12/10 10:22:32;;;;;;;;;1.75;1.75;;;;;6.65;94.48;98935.41;5046245;28;45679;-72
2021/12/10 10:24:58;;;;;;;;;1.00;1.00;;;;;6.45;94.77;98910.81;5049679;28;45460;-74
2021/12/10 10:27:29;;;;;;;;;1.00;1.00;;;;;6.73;95.11;98942.97;5043064;28;47065;-72
2021/12/10 10:30:02;;;;;;;;;1.00;1.00;;;;;6.77;94.82;98953.25;5038525;28;45574;-72
2021/12/10 10:32:31;;;;;;;;;1.00;0.00;;;;;6.73;94.30;98949.03;5039995;28;45430;-72
2021/12/10 10:35:04;;;;;;;;;1.75;1.00;;;;;6.85;93.10;98975.66;5035354;28;45745;-75
2021/12/10 10:37:31;;;;;;;;;2.00;2.00;;;;;6.81;94.07;98985.38;5035315;28;45884;-73
2021/12/10 10:39:56;;;;;;;;;2.75;1.50;;;;;6.73;94.01;98971.72;5035834;28;45358;-73
2021/12/10 10:42:28;;;;;;;;;1.50;1.25;;;;;6.76;93.56;98969.00;5035772;28;45450;-73
2021/12/10 10:45:02;;;;;;;;;1.75;1.00;;;;;6.83;93.02;98990.56;5036012;28;45621;-74
2021/12/10 10:47:27;;;;;;;;;1.00;0.00;;;;;6.78;93.01;98982.88;5036185;28;46639;-72
2021/12/10 10:49:59;;;;;;;;;2.00;1.00;;;;;6.88;93.08;98992.09;5043978;28;45820;-74
2021/12/10 10:52:36;;;;;;;;;2.00;1.50;;;;;6.90;92.68;98990.28;5053240;28;45593;-74
2021/12/10 10:55:10;;;;;;;;;2.00;2.00;;;;;6.94;92.79;99007.59;5035810;28;45956;-75
2021/12/10 10:57:39;;;;;;;;;3.00;2.00;;;;;7.00;91.81;99005.63;5037450;28;46212;-73
2021/12/10 11:00:28;;;;;;;;;2.25;2.25;;;;;6.96;92.67;99007.53;5034322;28;45370;-76
2021/12/10 11:02:59;;;;;;;;;2.00;2.00;;;;;7.04;91.75;99010.69;5034989;28;45856;-75
2021/12/10 11:05:25;;;;;;;;;2.75;2.75;;;;;7.04;91.93;99017.72;5034838;28;45393;-72
2021/12/10 11:07:55;;;;;;;;;3.00;2.00;;;;;6.97;91.81;99012.69;5037964;28;46311;-72
2021/12/10 11:10:41;;;;;;;;;2.25;2.00;;;;;6.95;91.83;99016.28;5047502;28;45490;-73
2021/12/10 11:13:25;;;;;;;;;3.00;2.00;;;;;7.04;91.73;99031.63;5035393;28;45543;-71
2021/12/10 11:16:04;;;;;;;;;7.00;3.50;;;;;7.04;91.13;99036.88;5035345;28;45538;-72
2021/12/10 11:18:41;;;;;;;;;4.00;3.00;;;;;7.02;92.17;99038.69;5035085;28;45702;-73
2021/12/10 11:21:07;;;;;;;;;3.00;1.25;;;;;6.98;92.12;99037.09;5013481;28;45660;-74
2021/12/10 11:23:33;;;;;;;;;4.00;2.25;;;;;7.07;92.33;99042.03;5047707;28;45983;-75
2021/12/10 11:26:00;;;;;;;;;3.50;2.00;;;;;7.09;90.76;99045.41;5038217;28;45771;-74
2021/12/10 11:28:30;;;;;;;;;0.25;0.25;;;;;7.05;90.04;99048.22;5034080;28;45842;-74
2021/12/10 11:31:18;;;;;;;;;4.00;2.00;;;;;7.07;90.68;99067.31;5033859;28;45477;-72
2021/12/10 11:33:50;;;;;;;;;2.75;2.75;;;;;7.03;90.92;99073.56;5033501;28;45822;-73
2021/12/10 11:36:22;;;;;;;;;2.50;2.00;;;;;7.05;90.98;99080.47;5035341;28;45577;-74
2021/12/10 11:38:51;;;;;;;;;3.00;1.50;;;;;6.94;90.67;99054.69;5034419;28;46249;-73
2021/12/10 11:41:24;;;;;;;;;4.75;4.25;;;;;7.05;90.30;99063.91;5034331;28;45478;-74
2021/12/10 11:46:47;;;;;;;;;4.25;3.00;;;;;7.07;89.19;99073.44;5034492;28;45480;-75
2021/12/10 11:49:14;;;;;;;;;3.00;3.00;;;;;7.14;89.64;99100.22;5053244;28;46327;-73
2021/12/10 11:51:49;;;;;;;;;3.25;2.50;;;;;7.12;90.15;99104.66;5040500;28;45570;-75
2021/12/10 11:54:24;;;;;;;;;9.25;3.75;;;;;7.13;90.30;99111.56;5047977;28;45417;-74
2021/12/10 11:56:55;;;;;;;;;5.25;3.25;;;;;7.12;90.27;99102.03;5054904;28;45519;-75